createdAt,value
2023-02-18T00:02:58.125Z,10.33
2023-02-18T00:08:03.262Z,9.50
2023-02-18T00:13:06.674Z,8.50
2023-02-18T00:18:10.069Z,13.67
2023-02-18T00:23:13.509Z,11.00
2023-02-18T00:28:17.148Z,9.00
2023-02-18T00:33:20.689Z,11.33
2023-02-18T00:38:24.499Z,6.00
2023-02-18T00:43:37.027Z,9.00
2023-02-18T00:48:49.748Z,9.00
2023-02-18T00:53:53.614Z,7.00
2023-02-18T00:58:57.244Z,7.00
2023-02-18T01:04:06.339Z,5.67
2023-02-18T01:09:10.542Z,4.50
2023-02-18T01:14:13.840Z,6.00
2023-02-18T01:19:56.376Z,6.50
2023-02-18T01:25:00.026Z,7.00
2023-02-18T01:30:10.524Z,8.00
2023-02-18T01:35:24.873Z,6.00
2023-02-18T01:40:29.753Z,7.67
2023-02-18T01:45:37.357Z,8.00
2023-02-18T01:51:03.392Z,4.50
2023-02-18T01:56:10.373Z,4.00
2023-02-18T02:01:14.106Z,2.00
2023-02-18T02:06:20.815Z,0.00
2023-02-18T02:12:12.597Z,2.50
2023-02-18T02:17:58.345Z,3.00
2023-02-18T02:23:14.113Z,3.00
2023-02-18T02:28:35.269Z,3.00
2023-02-18T02:34:06.193Z,0.00
2023-02-18T02:39:29.916Z,3.00
2023-02-18T02:45:12.118Z,4.00
2023-02-18T02:50:57.172Z,2.00
2023-02-18T02:56:00.584Z,1.00
2023-02-18T03:01:15.918Z,2.00
2023-02-18T03:06:37.936Z,2.00
2023-02-18T03:12:11.102Z,2.00
2023-02-18T03:17:30.508Z,2.00
2023-02-18T03:22:40.108Z,2.00
2023-02-18T03:28:16.429Z,2.00
2023-02-18T03:33:44.428Z,2.67
2023-02-18T03:38:55.399Z,1.00
2023-02-18T03:44:01.681Z,4.67
2023-02-18T03:49:06.775Z,4.00
2023-02-18T03:54:51.381Z,5.00
2023-02-18T03:59:57.352Z,2.00
2023-02-18T04:05:00.907Z,3.00
2023-02-18T04:10:05.809Z,2.50
2023-02-18T04:15:27.477Z,4.00
2023-02-18T04:20:48.653Z,4.00
2023-02-18T04:25:56.256Z,2.00
2023-02-18T04:31:02.906Z,4.00
2023-02-18T04:36:26.664Z,3.67
2023-02-18T04:41:30.260Z,2.00
2023-02-18T04:46:41.407Z,3.00
2023-02-18T04:51:45.240Z,2.00
2023-02-18T04:56:48.565Z,1.33
2023-02-18T05:01:52.285Z,1.00
2023-02-18T05:06:55.811Z,1.00
2023-02-18T05:12:05.302Z,1.00
2023-02-18T05:17:09.024Z,1.00
2023-02-18T05:22:12.356Z,0.00
2023-02-18T05:27:15.747Z,0.00
2023-02-18T05:32:19.252Z,1.00
2023-02-18T05:37:22.615Z,0.00
2023-02-18T05:42:25.950Z,0.00
2023-02-18T05:47:30.412Z,0.50
2023-02-18T05:52:33.799Z,0.00
2023-02-18T05:57:38.536Z,1.00
2023-02-18T06:02:52.094Z,0.00
2023-02-18T06:07:56.793Z,0.00
2023-02-18T06:13:08.554Z,0.00
2023-02-18T06:18:12.113Z,0.00
2023-02-18T06:23:16.184Z,0.00
2023-02-18T06:28:19.612Z,0.00
2023-02-18T06:33:33.072Z,0.00
2023-02-18T06:38:36.562Z,0.00
2023-02-18T06:43:40.140Z,0.00
2023-02-18T06:48:52.686Z,0.00
2023-02-18T06:53:56.035Z,0.00
2023-02-18T06:59:00.119Z,0.00
2023-02-18T07:04:03.660Z,0.00
2023-02-18T07:09:07.346Z,0.00
2023-02-18T07:14:13.273Z,0.00
2023-02-18T07:19:17.502Z,0.00
2023-02-18T07:24:21.228Z,1.00
2023-02-18T07:29:24.650Z,0.00
2023-02-18T07:34:28.455Z,0.00
2023-02-18T07:39:31.838Z,0.00
2023-02-18T07:44:36.637Z,1.00
2023-02-18T07:49:40.413Z,1.00
2023-02-18T07:54:59.594Z,0.00
2023-02-18T08:00:03.289Z,0.00
2023-02-18T08:05:15.948Z,0.00
2023-02-18T08:10:22.110Z,1.00
2023-02-18T08:15:25.453Z,0.00
2023-02-18T08:20:30.734Z,0.00
2023-02-18T08:25:37.491Z,0.00
2023-02-18T08:30:51.826Z,0.00
2023-02-18T08:35:55.936Z,0.00
2023-02-18T08:41:04.203Z,1.00
2023-02-18T08:46:07.870Z,0.00
2023-02-18T08:51:23.081Z,0.00
2023-02-18T08:56:29.692Z,0.00
2023-02-18T09:01:35.952Z,0.00
2023-02-18T09:06:40.246Z,0.00
2023-02-18T09:11:43.950Z,0.00
2023-02-18T09:16:47.429Z,0.00
2023-02-18T09:21:53.332Z,0.00
2023-02-18T09:26:56.799Z,0.00
2023-02-18T09:32:04.078Z,0.00
2023-02-18T09:37:07.379Z,0.00
2023-02-18T09:42:16.340Z,0.00
2023-02-18T09:47:26.976Z,1.00
2023-02-18T09:52:33.333Z,0.00
2023-02-18T09:57:46.121Z,1.00
2023-02-18T10:02:58.411Z,0.00
2023-02-18T10:08:25.227Z,0.67
2023-02-18T10:13:34.267Z,1.00
2023-02-18T10:18:42.890Z,1.00
2023-02-18T10:24:05.163Z,1.00
2023-02-18T10:29:20.974Z,1.00
2023-02-18T10:34:37.462Z,1.00
2023-02-18T10:39:48.936Z,1.00
2023-02-18T10:45:04.262Z,0.00
2023-02-18T10:50:20.404Z,0.00
2023-02-18T10:55:36.747Z,1.00
2023-02-18T11:00:41.082Z,0.00
2023-02-18T11:05:52.145Z,1.50
2023-02-18T11:10:56.494Z,1.00
2023-02-18T11:16:04.013Z,2.00
2023-02-18T11:21:21.659Z,1.00
2023-02-18T11:26:34.698Z,1.50
2023-02-18T11:31:48.271Z,2.00
2023-02-18T11:36:52.708Z,1.00
2023-02-18T11:41:58.974Z,3.00
2023-02-18T11:47:14.451Z,1.50
2023-02-18T11:52:21.523Z,3.00
2023-02-18T11:57:27.391Z,2.00
2023-02-18T12:02:45.708Z,3.00
2023-02-18T12:07:53.285Z,3.00
2023-02-18T12:13:08.214Z,4.00
2023-02-18T12:18:31.310Z,2.00
2023-02-18T12:24:13.827Z,3.33
2023-02-18T12:29:40.770Z,2.00
2023-02-18T12:34:58.367Z,3.00
2023-02-18T12:40:21.245Z,2.50
2023-02-18T12:45:48.753Z,4.00
2023-02-18T12:51:09.752Z,3.00
2023-02-18T12:56:54.272Z,3.00
2023-02-18T13:02:20.946Z,5.00
2023-02-18T13:07:34.236Z,5.33
2023-02-18T13:12:46.107Z,3.50
2023-02-18T13:17:50.417Z,3.00
2023-02-18T13:22:54.272Z,3.50
2023-02-18T13:28:21.213Z,5.00
2023-02-18T13:33:44.275Z,4.50
2023-02-18T13:39:08.847Z,5.00
2023-02-18T13:44:22.259Z,4.00
2023-02-18T13:49:31.789Z,3.00
2023-02-18T13:54:47.525Z,5.50
2023-02-18T13:59:57.143Z,6.00
2023-02-18T14:05:09.818Z,5.00
2023-02-18T14:10:24.480Z,3.00
2023-02-18T14:15:28.028Z,6.67
2023-02-18T14:20:56.197Z,8.00
2023-02-18T14:26:19.592Z,9.50
2023-02-18T14:31:42.578Z,10.50
2023-02-18T14:36:45.820Z,7.00
2023-02-18T14:42:27.210Z,9.67
2023-02-18T14:47:57.175Z,11.00
2023-02-18T14:53:07.977Z,16.00
2023-02-18T14:58:46.282Z,13.00
2023-02-18T15:03:51.743Z,18.50
2023-02-18T15:09:18.135Z,18.00
2023-02-18T15:14:29.217Z,23.50
2023-02-18T15:19:57.412Z,22.00
2023-02-18T15:25:01.273Z,22.00
2023-02-18T15:30:35.347Z,26.00
2023-02-18T15:35:44.987Z,32.00
2023-02-18T15:40:55.426Z,26.50
2023-02-18T15:46:17.323Z,27.33
2023-02-18T15:51:29.328Z,23.00
2023-02-18T15:56:50.044Z,25.00
2023-02-18T16:02:14.125Z,32.33
2023-02-18T16:07:27.804Z,38.00
2023-02-18T16:12:36.418Z,42.00
2023-02-18T16:17:44.838Z,39.00
2023-02-18T16:23:08.713Z,38.00
2023-02-18T16:28:24.694Z,22.50
2023-02-18T16:33:33.672Z,14.00
2023-02-18T16:38:39.906Z,15.00
2023-02-18T16:43:54.167Z,16.33
2023-02-18T16:48:57.499Z,16.00
2023-02-18T16:54:01.388Z,12.00
2023-02-18T16:59:05.290Z,13.00
2023-02-18T17:04:13.908Z,11.00
2023-02-18T17:09:20.755Z,14.50
2023-02-18T17:14:24.454Z,17.50
2023-02-18T17:19:28.511Z,19.00
2023-02-18T17:24:31.844Z,18.00
2023-02-18T17:29:35.304Z,18.00
2023-02-18T17:34:41.244Z,15.00
2023-02-18T17:39:44.709Z,13.00
2023-02-18T17:44:48.118Z,12.00
2023-02-18T17:49:51.588Z,14.33
2023-02-18T17:54:55.035Z,13.00
2023-02-18T17:59:58.750Z,12.00
2023-02-18T18:05:02.099Z,14.00
2023-02-18T18:10:05.903Z,11.50
2023-02-18T18:15:21.407Z,15.00
2023-02-18T18:20:26.584Z,20.00
2023-02-18T18:25:37.633Z,16.00
2023-02-18T18:30:43.769Z,16.00
2023-02-18T18:35:50.123Z,20.00
2023-02-18T18:40:56.913Z,20.00
2023-02-18T18:46:00.813Z,25.00
2023-02-18T18:51:05.382Z,27.00
2023-02-18T18:56:10.383Z,20.00
2023-02-18T19:01:17.376Z,24.00
2023-02-18T19:06:21.276Z,22.00
2023-02-18T19:11:24.840Z,22.50
2023-02-18T19:16:37.337Z,25.50
2023-02-18T19:21:42.234Z,19.50
2023-02-18T19:26:45.824Z,18.50
2023-02-18T19:31:50.822Z,19.50
2023-02-18T19:36:55.821Z,19.00
2023-02-18T19:41:59.619Z,17.50
2023-02-18T19:47:03.314Z,14.00
2023-02-18T19:52:06.658Z,13.67
2023-02-18T19:57:10.061Z,13.00
2023-02-18T20:02:17.805Z,10.00
2023-02-18T20:07:22.251Z,11.33
2023-02-18T20:12:25.773Z,13.50
2023-02-18T20:17:29.288Z,6.00
2023-02-18T20:22:32.718Z,12.00
2023-02-18T20:27:39.752Z,13.00
2023-02-18T20:32:51.278Z,11.50
2023-02-18T20:37:54.681Z,12.50
2023-02-18T20:42:58.025Z,8.50
2023-02-18T20:48:01.402Z,7.00
2023-02-18T20:53:04.874Z,8.00
2023-02-18T20:58:08.474Z,7.33
2023-02-18T21:03:12.257Z,8.33
2023-02-18T21:08:15.855Z,7.00
2023-02-18T21:13:20.228Z,11.33
2023-02-18T21:18:23.627Z,7.00
2023-02-18T21:23:27.031Z,6.00
2023-02-18T21:28:31.198Z,8.00
2023-02-18T21:33:34.581Z,5.00
2023-02-18T21:38:38.067Z,1.00
2023-02-18T21:43:44.812Z,3.00
2023-02-18T21:49:06.054Z,3.00
2023-02-18T21:54:09.546Z,4.00
2023-02-18T21:59:12.877Z,3.00
2023-02-18T22:04:16.617Z,2.00
2023-02-18T22:09:20.109Z,1.00
2023-02-18T22:14:23.677Z,2.00
2023-02-18T22:19:27.060Z,2.00
2023-02-18T22:24:31.700Z,1.50
2023-02-18T22:29:35.300Z,1.00
2023-02-18T22:34:38.628Z,3.00
2023-02-18T22:39:42.345Z,2.00
2023-02-18T22:44:45.595Z,1.00
2023-02-18T22:49:48.870Z,2.00
2023-02-18T22:54:53.980Z,1.00
2023-02-18T22:59:58.392Z,0.00
2023-02-18T23:05:01.660Z,2.00
2023-02-18T23:10:05.479Z,2.00
2023-02-18T23:15:09.421Z,2.00
2023-02-18T23:20:15.494Z,2.50
2023-02-18T23:25:18.846Z,1.00
2023-02-18T23:30:22.569Z,2.00
2023-02-18T23:35:25.893Z,1.00
2023-02-18T23:40:29.455Z,2.00
2023-02-18T23:45:32.987Z,1.00
2023-02-18T23:50:36.610Z,2.50
2023-02-18T23:55:40.213Z,2.00
